createdAt,value
2022-11-22T00:01:11.891Z,4.07
2022-11-22T00:03:39.618Z,4.13
2022-11-22T00:06:08.758Z,5.57
2022-11-22T00:08:38.357Z,4.13
2022-11-22T00:11:06.160Z,4.27
2022-11-22T00:13:34.173Z,5.13
2022-11-22T00:16:02.734Z,4.20
2022-11-22T00:18:30.643Z,4.47
2022-11-22T00:20:58.364Z,4.83
2022-11-22T00:23:26.712Z,4.67
2022-11-22T00:25:56.058Z,3.37
2022-11-22T00:28:23.991Z,3.57
2022-11-22T00:30:52.893Z,3.43
2022-11-22T00:33:20.796Z,3.67
2022-11-22T00:35:48.641Z,3.40
2022-11-22T00:38:16.400Z,3.27
2022-11-22T00:40:44.643Z,3.07
2022-11-22T00:43:13.873Z,3.10
2022-11-22T00:45:42.425Z,3.60
2022-11-22T00:48:10.491Z,3.50
2022-11-22T00:50:39.609Z,3.40
2022-11-22T00:53:07.399Z,3.43
2022-11-22T00:55:35.496Z,2.83
2022-11-22T00:58:03.922Z,3.70
2022-11-22T01:00:33.166Z,3.60
2022-11-22T01:03:01.255Z,3.60
2022-11-22T01:05:29.216Z,3.73
2022-11-22T01:07:57.024Z,3.63
2022-11-22T01:10:25.090Z,3.93
2022-11-22T01:12:53.452Z,4.00
2022-11-22T01:15:21.317Z,4.30
2022-11-22T01:17:55.210Z,3.43
2022-11-22T01:20:23.202Z,4.23
2022-11-22T01:22:54.265Z,4.67
2022-11-22T01:25:22.150Z,3.40
2022-11-22T01:27:51.079Z,3.97
2022-11-22T01:30:19.445Z,4.13
2022-11-22T01:32:47.523Z,4.40
2022-11-22T01:35:17.347Z,4.63
2022-11-22T01:37:45.285Z,4.60
2022-11-22T01:40:13.191Z,4.20
2022-11-22T01:42:43.691Z,4.90
2022-11-22T01:45:30.070Z,4.90
2022-11-22T01:48:00.989Z,4.80
2022-11-22T01:50:31.307Z,4.73
2022-11-22T01:53:01.616Z,5.30
2022-11-22T01:55:29.378Z,4.30
2022-11-22T01:57:58.043Z,5.00
2022-11-22T02:00:26.857Z,5.47
2022-11-22T02:02:56.795Z,4.87
2022-11-22T02:05:27.435Z,5.13
2022-11-22T02:08:00.267Z,4.97
2022-11-22T02:10:29.290Z,5.37
2022-11-22T02:12:59.017Z,5.53
2022-11-22T02:15:26.852Z,5.50
2022-11-22T02:17:54.598Z,5.53
2022-11-22T02:20:22.390Z,5.53
2022-11-22T02:22:56.221Z,5.00
2022-11-22T02:25:29.063Z,5.10
2022-11-22T02:27:58.689Z,5.80
2022-11-22T02:30:26.700Z,5.60
2022-11-22T02:32:55.657Z,5.33
2022-11-22T02:35:25.170Z,6.03
2022-11-22T02:37:56.138Z,5.73
2022-11-22T02:40:25.110Z,5.47
2022-11-22T02:42:55.822Z,6.17
2022-11-22T02:45:25.093Z,5.83
2022-11-22T02:47:52.935Z,5.77
2022-11-22T02:50:20.927Z,5.60
2022-11-22T02:52:48.665Z,6.03
2022-11-22T02:55:17.026Z,5.80
2022-11-22T02:57:44.965Z,6.50
2022-11-22T03:00:13.858Z,6.57
2022-11-22T03:02:47.326Z,5.07
2022-11-22T03:05:15.453Z,6.37
2022-11-22T03:07:43.548Z,6.57
2022-11-22T03:10:12.108Z,5.77
2022-11-22T03:12:40.141Z,5.53
2022-11-22T03:15:08.607Z,6.50
2022-11-22T03:17:36.821Z,7.10
2022-11-22T03:20:06.586Z,6.00
2022-11-22T03:22:34.572Z,5.87
2022-11-22T03:25:02.792Z,6.03
2022-11-22T03:27:30.882Z,6.00
2022-11-22T03:29:59.289Z,5.80
2022-11-22T03:32:27.404Z,6.10
2022-11-22T03:34:56.898Z,6.10
2022-11-22T03:37:26.292Z,5.30
2022-11-22T03:39:54.137Z,5.70
2022-11-22T03:42:22.278Z,5.93
2022-11-22T03:44:50.541Z,5.23
2022-11-22T03:47:19.756Z,5.37
2022-11-22T03:49:47.697Z,6.60
2022-11-22T03:52:15.844Z,6.23
2022-11-22T03:54:45.144Z,6.13
2022-11-22T03:57:13.382Z,5.93
2022-11-22T03:59:41.126Z,6.03
2022-11-22T04:02:09.119Z,6.57
2022-11-22T04:04:37.025Z,7.23
2022-11-22T04:07:05.179Z,6.50
2022-11-22T04:09:33.736Z,5.77
2022-11-22T04:12:03.408Z,6.67
2022-11-22T04:14:48.675Z,7.30
2022-11-22T04:17:36.756Z,6.57
2022-11-22T04:20:18.587Z,7.10
2022-11-22T04:22:46.974Z,6.77
2022-11-22T04:25:16.426Z,7.20
2022-11-22T04:27:45.855Z,6.30
2022-11-22T04:30:20.130Z,6.23
2022-11-22T04:32:47.668Z,6.87
2022-11-22T04:35:16.618Z,6.27
2022-11-22T04:37:52.193Z,6.97
2022-11-22T04:40:21.445Z,8.93
2022-11-22T04:43:08.583Z,10.53
2022-11-22T04:45:36.405Z,9.00
2022-11-22T04:48:04.183Z,10.43
2022-11-22T04:50:50.191Z,7.83
2022-11-22T04:53:19.584Z,6.73
2022-11-22T04:55:48.570Z,7.10
2022-11-22T04:58:18.098Z,6.73
2022-11-22T05:00:46.222Z,6.43
2022-11-22T05:03:14.390Z,5.27
2022-11-22T05:05:43.705Z,5.40
2022-11-22T05:08:12.345Z,4.73
2022-11-22T05:10:58.258Z,5.67
2022-11-22T05:13:28.999Z,5.83
2022-11-22T05:15:57.345Z,5.97
2022-11-22T05:18:25.567Z,5.40
2022-11-22T05:20:56.593Z,6.73
2022-11-22T05:23:42.616Z,7.00
2022-11-22T05:26:11.193Z,6.13
2022-11-22T05:28:40.636Z,6.10
2022-11-22T05:31:09.912Z,6.77
2022-11-22T05:33:39.365Z,7.30
2022-11-22T05:36:07.860Z,6.80
2022-11-22T05:38:38.168Z,7.13
2022-11-22T05:41:06.553Z,7.97
2022-11-22T05:43:35.030Z,8.70
2022-11-22T05:46:08.729Z,8.00
2022-11-22T05:48:37.030Z,7.50
2022-11-22T05:51:05.614Z,7.80
2022-11-22T05:53:33.711Z,9.60
2022-11-22T05:56:05.050Z,7.40
2022-11-22T05:58:34.936Z,8.60
2022-11-22T06:01:08.664Z,9.23
2022-11-22T06:03:37.342Z,9.87
2022-11-22T06:06:06.675Z,9.90
2022-11-22T06:08:36.045Z,9.83
2022-11-22T06:11:07.320Z,11.97
2022-11-22T06:13:36.753Z,10.13
2022-11-22T06:16:05.248Z,8.50
2022-11-22T06:18:34.749Z,9.23
2022-11-22T06:21:03.379Z,8.07
2022-11-22T06:23:33.170Z,9.03
2022-11-22T06:26:01.494Z,8.03
2022-11-22T06:28:30.130Z,10.17
2022-11-22T06:31:02.128Z,12.53
2022-11-22T06:33:30.297Z,10.80
2022-11-22T06:36:04.417Z,12.53
2022-11-22T06:38:32.560Z,11.60
2022-11-22T06:41:01.144Z,14.23
2022-11-22T06:43:29.543Z,13.97
2022-11-22T06:45:57.578Z,12.63
2022-11-22T06:48:26.469Z,11.73
2022-11-22T06:50:59.236Z,13.57
2022-11-22T06:53:46.207Z,12.00
2022-11-22T06:56:16.850Z,11.00
2022-11-22T06:58:45.961Z,10.00
2022-11-22T07:01:15.226Z,10.73
2022-11-22T07:03:43.571Z,11.50
2022-11-22T07:06:12.615Z,10.13
2022-11-22T07:08:41.864Z,10.53
2022-11-22T07:11:11.225Z,9.00
2022-11-22T07:13:39.655Z,8.87
2022-11-22T07:16:08.548Z,8.90
2022-11-22T07:18:36.326Z,9.77
2022-11-22T07:21:12.552Z,9.67
2022-11-22T07:23:44.094Z,8.60
2022-11-22T07:26:14.223Z,8.77
2022-11-22T07:28:43.059Z,9.80
2022-11-22T07:31:12.943Z,9.63
2022-11-22T07:33:41.344Z,10.70
2022-11-22T07:36:10.244Z,12.17
2022-11-22T07:38:40.380Z,11.17
2022-11-22T07:41:10.282Z,8.63
2022-11-22T07:43:39.201Z,12.27
2022-11-22T07:46:10.835Z,10.63
2022-11-22T07:48:38.530Z,14.17
2022-11-22T07:51:07.230Z,11.83
2022-11-22T07:53:36.091Z,11.77
2022-11-22T07:56:04.402Z,11.37
2022-11-22T07:58:34.215Z,12.13
2022-11-22T08:01:06.113Z,13.40
2022-11-22T08:03:33.984Z,14.33
2022-11-22T08:06:02.380Z,17.63
2022-11-22T08:08:30.392Z,15.47
2022-11-22T08:10:58.435Z,14.33
2022-11-22T08:13:26.611Z,12.83
2022-11-22T08:15:59.651Z,11.00
2022-11-22T08:18:29.917Z,9.80
2022-11-22T08:21:04.766Z,11.73
2022-11-22T08:23:32.472Z,11.83
2022-11-22T08:26:01.593Z,11.90
2022-11-22T08:28:29.395Z,12.33
2022-11-22T08:31:03.747Z,13.33
2022-11-22T08:33:32.344Z,11.77
2022-11-22T08:36:00.033Z,10.97
2022-11-22T08:38:28.407Z,13.77
2022-11-22T08:40:56.275Z,11.30
2022-11-22T08:43:24.458Z,11.70
2022-11-22T08:45:55.422Z,10.93
2022-11-22T08:48:25.340Z,12.20
2022-11-22T08:50:53.869Z,11.70
2022-11-22T08:53:22.017Z,12.33
2022-11-22T08:55:50.020Z,11.93
2022-11-22T08:58:18.068Z,12.27
2022-11-22T09:00:45.885Z,13.30
2022-11-22T09:03:13.940Z,9.27
2022-11-22T09:08:36.161Z,9.33
2022-11-22T09:11:07.876Z,9.97
2022-11-22T09:13:35.654Z,9.33
2022-11-22T09:16:04.225Z,10.80
2022-11-22T09:18:32.312Z,7.73
2022-11-22T09:21:02.259Z,9.93
2022-11-22T09:23:30.418Z,10.10
2022-11-22T09:25:58.922Z,8.47
2022-11-22T09:28:27.244Z,9.63
2022-11-22T09:30:59.870Z,11.13
2022-11-22T09:33:28.463Z,11.43
2022-11-22T09:36:02.874Z,11.13
2022-11-22T09:38:32.318Z,6.57
2022-11-22T09:41:00.996Z,8.13
2022-11-22T09:43:35.900Z,8.10
2022-11-22T09:46:15.971Z,8.27
2022-11-22T09:48:52.065Z,6.93
2022-11-22T09:51:24.690Z,6.33
2022-11-22T09:53:54.737Z,5.70
2022-11-22T09:56:24.785Z,7.27
2022-11-22T09:58:57.608Z,8.80
2022-11-22T10:01:29.878Z,8.57
2022-11-22T10:04:00.134Z,7.33
2022-11-22T10:06:33.537Z,6.67
2022-11-22T10:09:07.951Z,8.03
2022-11-22T10:11:39.513Z,10.00
2022-11-22T10:14:12.400Z,7.93
2022-11-22T10:16:42.586Z,8.77
2022-11-22T10:19:16.138Z,7.40
2022-11-22T10:21:47.763Z,8.37
2022-11-22T10:24:17.286Z,7.30
2022-11-22T10:26:46.948Z,6.90
2022-11-22T10:29:19.224Z,6.20
2022-11-22T10:31:51.338Z,6.17
2022-11-22T10:34:27.296Z,5.00
2022-11-22T10:37:02.228Z,5.67
2022-11-22T10:39:48.864Z,5.93
2022-11-22T10:42:24.074Z,5.30
2022-11-22T10:44:55.450Z,4.33
2022-11-22T10:47:34.354Z,5.27
2022-11-22T10:50:08.882Z,4.10
2022-11-22T10:52:44.328Z,5.17
2022-11-22T10:55:19.621Z,10.73
2022-11-22T10:57:52.412Z,8.53
2022-11-22T11:00:21.325Z,6.63
2022-11-22T11:02:59.823Z,6.40
2022-11-22T11:05:32.187Z,5.60
2022-11-22T11:08:36.608Z,5.83
2022-11-22T11:10:52.516Z,5.77
2022-11-22T11:13:23.560Z,4.93
2022-11-22T11:15:56.035Z,5.53
2022-11-22T11:18:28.599Z,6.13
2022-11-22T11:20:57.009Z,5.93
2022-11-22T11:23:26.524Z,6.00
2022-11-22T11:25:54.554Z,8.47
2022-11-22T11:28:23.696Z,6.97
2022-11-22T11:30:54.079Z,5.77
2022-11-22T11:33:30.609Z,5.47
2022-11-22T11:36:02.795Z,5.97
2022-11-22T11:38:33.221Z,6.20
2022-11-22T11:41:17.811Z,5.70
2022-11-22T11:43:46.229Z,5.43
2022-11-22T11:46:17.252Z,5.13
2022-11-22T11:48:45.273Z,6.93
2022-11-22T11:51:18.243Z,5.73
2022-11-22T11:53:54.136Z,5.80
2022-11-22T11:56:23.844Z,5.73
2022-11-22T11:58:54.822Z,4.67
2022-11-22T12:01:23.773Z,6.57
2022-11-22T12:03:52.999Z,6.13
2022-11-22T12:06:20.693Z,7.93
2022-11-22T12:08:50.168Z,7.17
2022-11-22T12:11:23.877Z,5.80
2022-11-22T12:14:19.180Z,7.27
2022-11-22T12:16:45.955Z,6.77
2022-11-22T12:19:24.593Z,7.73
2022-11-22T12:21:58.699Z,8.33
2022-11-22T12:27:18.607Z,8.47
2022-11-22T12:29:46.847Z,12.67
2022-11-22T12:32:18.933Z,11.17
2022-11-22T12:34:52.750Z,11.10
2022-11-22T12:37:21.864Z,14.37
2022-11-22T12:39:50.903Z,12.80
2022-11-22T12:42:23.410Z,11.30
2022-11-22T12:44:53.353Z,11.73
2022-11-22T12:47:24.259Z,11.87
2022-11-22T12:49:53.898Z,12.40
2022-11-22T12:52:26.214Z,12.70
2022-11-22T12:55:02.121Z,15.37
2022-11-22T12:57:35.977Z,15.23
2022-11-22T13:00:06.253Z,13.77
2022-11-22T13:02:39.126Z,13.20
2022-11-22T13:05:11.605Z,14.03
2022-11-22T13:07:46.582Z,13.03
2022-11-22T13:10:21.788Z,13.40
2022-11-22T13:12:52.763Z,14.67
2022-11-22T13:15:25.963Z,10.63
2022-11-22T13:17:54.211Z,13.00
2022-11-22T13:20:22.763Z,12.90
2022-11-22T13:22:55.849Z,13.10
2022-11-22T13:25:35.943Z,13.37
2022-11-22T13:28:11.031Z,13.07
2022-11-22T13:30:40.358Z,13.50
2022-11-22T13:33:24.636Z,20.00
2022-11-22T13:35:52.407Z,20.80
2022-11-22T13:38:22.512Z,25.60
2022-11-22T13:40:51.728Z,22.47
2022-11-22T13:43:51.879Z,22.30
2022-11-22T13:46:39.110Z,22.53
2022-11-22T13:49:16.711Z,20.70
2022-11-22T13:51:52.146Z,18.60
2022-11-22T13:54:41.293Z,22.90
2022-11-22T13:57:24.197Z,20.93
2022-11-22T14:00:07.313Z,20.93
2022-11-22T14:02:35.726Z,18.80
2022-11-22T14:05:05.103Z,20.97
2022-11-22T14:07:37.734Z,19.90
2022-11-22T14:10:25.490Z,20.83
2022-11-22T14:13:05.120Z,20.13
2022-11-22T14:15:46.765Z,21.27
2022-11-22T14:18:21.668Z,18.97
2022-11-22T14:21:00.870Z,19.73
2022-11-22T14:23:33.707Z,18.53
2022-11-22T14:26:13.382Z,17.07
2022-11-22T14:28:58.462Z,17.70
2022-11-22T14:31:28.049Z,27.00
2022-11-22T14:34:16.039Z,17.13
2022-11-22T14:36:45.935Z,16.83
2022-11-22T14:39:47.523Z,12.60
2022-11-22T14:42:30.461Z,18.23
2022-11-22T14:44:58.337Z,15.60
2022-11-22T14:47:26.514Z,16.70
2022-11-22T14:49:57.738Z,14.50
2022-11-22T14:52:29.277Z,14.40
2022-11-22T14:54:58.302Z,13.27
2022-11-22T14:57:27.244Z,13.00
2022-11-22T15:00:06.752Z,13.40
2022-11-22T15:02:50.816Z,11.50
2022-11-22T15:09:14.914Z,11.10
2022-11-22T15:09:20.359Z,10.33
2022-11-22T15:11:24.537Z,10.77
2022-11-22T15:14:00.490Z,9.67
2022-11-22T15:59:40.495Z,10.23
2022-11-22T16:02:14.881Z,10.47
2022-11-22T16:04:49.000Z,10.40
2022-11-22T16:07:38.458Z,9.70
2022-11-22T16:10:07.932Z,10.87
2022-11-22T16:12:37.414Z,12.33
2022-11-22T16:15:20.444Z,12.07
2022-11-22T16:17:59.066Z,12.23
2022-11-22T16:20:32.514Z,13.37
2022-11-22T16:23:25.961Z,14.70
2022-11-22T16:25:58.738Z,13.43
2022-11-22T16:28:28.367Z,14.20
2022-11-22T16:30:57.000Z,13.60
2022-11-22T16:33:26.956Z,16.37
2022-11-22T16:35:56.207Z,15.97
2022-11-22T16:38:24.494Z,13.50
2022-11-22T16:40:53.052Z,18.43
2022-11-22T16:43:21.725Z,17.47
2022-11-22T16:45:50.123Z,9.17
2022-11-22T16:48:34.553Z,7.50
2022-11-22T16:51:09.545Z,7.97
2022-11-22T16:53:42.611Z,7.47
2022-11-22T16:56:15.944Z,7.13
2022-11-22T16:58:44.033Z,9.77
2022-11-22T17:01:15.271Z,8.10
2022-11-22T17:03:43.914Z,7.23
2022-11-22T17:06:16.313Z,7.70
2022-11-22T17:08:44.725Z,8.93
2022-11-22T17:11:15.842Z,10.10
2022-11-22T17:13:44.439Z,7.13
2022-11-22T17:16:12.356Z,8.67
2022-11-22T17:18:40.687Z,9.23
2022-11-22T17:21:15.565Z,10.47
2022-11-22T17:23:45.001Z,9.53
2022-11-22T17:26:13.286Z,9.57
2022-11-22T17:28:41.196Z,10.40
2022-11-22T17:31:13.057Z,8.23
2022-11-22T17:33:41.609Z,6.47
2022-11-22T17:36:14.765Z,8.00
2022-11-22T17:38:42.926Z,6.70
2022-11-22T17:41:12.059Z,7.30
2022-11-22T17:43:39.835Z,7.30
2022-11-22T17:46:08.010Z,5.53
2022-11-22T17:48:35.878Z,5.70
2022-11-22T17:51:06.575Z,5.87
2022-11-22T17:53:34.589Z,4.90
2022-11-22T17:56:10.484Z,5.67
2022-11-22T17:58:41.683Z,5.67
2022-11-22T18:01:11.157Z,5.70
2022-11-22T18:03:40.534Z,4.70
2022-11-22T18:06:08.640Z,3.97
2022-11-22T18:08:36.647Z,3.73
2022-11-22T18:11:05.226Z,4.30
2022-11-22T18:13:34.044Z,5.97
2022-11-22T18:16:04.093Z,5.13
2022-11-22T18:21:23.288Z,5.10
2022-11-22T18:23:51.627Z,3.10
2022-11-22T18:31:57.833Z,3.43
2022-11-22T18:34:26.035Z,3.77
2022-11-22T18:37:00.231Z,4.07
2022-11-22T18:39:30.476Z,3.40
2022-11-22T18:41:58.817Z,4.03
2022-11-22T18:44:26.741Z,7.30
2022-11-22T18:46:54.984Z,5.20
2022-11-22T18:49:24.766Z,3.50
2022-11-22T18:51:52.812Z,4.90
2022-11-22T18:54:22.258Z,4.03
2022-11-22T18:56:50.305Z,4.13
2022-11-22T18:59:18.111Z,4.10
2022-11-22T19:01:46.338Z,4.23
2022-11-22T19:04:15.309Z,4.23
2022-11-22T19:06:45.615Z,4.43
2022-11-22T19:09:14.289Z,5.97
2022-11-22T19:11:42.765Z,5.23
2022-11-22T19:14:13.280Z,5.50
2022-11-22T19:16:41.449Z,5.33
2022-11-22T19:19:11.574Z,6.47
2022-11-22T19:21:39.322Z,5.37
2022-11-22T19:24:09.052Z,5.10
2022-11-22T19:26:37.364Z,4.87
2022-11-22T19:29:05.286Z,5.53
2022-11-22T19:31:33.802Z,4.93
2022-11-22T19:34:02.153Z,5.97
2022-11-22T19:36:33.661Z,6.57
2022-11-22T19:39:03.197Z,8.40
2022-11-22T19:41:33.225Z,4.83
2022-11-22T19:44:01.727Z,5.53
2022-11-22T19:46:30.261Z,5.60
2022-11-22T19:48:59.214Z,6.40
2022-11-22T19:51:27.896Z,5.70
2022-11-22T19:53:59.391Z,5.70
2022-11-22T19:56:30.407Z,5.57
2022-11-22T19:59:01.868Z,5.10
2022-11-22T20:01:31.053Z,5.10
2022-11-22T20:03:59.703Z,4.83
2022-11-22T20:06:29.348Z,5.83
2022-11-22T20:09:01.994Z,5.43
2022-11-22T20:11:30.212Z,5.00
2022-11-22T20:14:02.660Z,5.87
2022-11-22T20:16:32.294Z,4.60
2022-11-22T20:19:00.715Z,5.77
2022-11-22T20:21:29.422Z,8.63
2022-11-22T20:23:57.387Z,7.60
2022-11-22T20:26:26.323Z,5.40
2022-11-22T20:28:57.981Z,2.93
2022-11-22T20:31:28.534Z,6.33
2022-11-22T20:33:57.742Z,4.37
2022-11-22T20:36:26.648Z,3.73
2022-11-22T20:38:54.999Z,5.03
2022-11-22T20:41:24.806Z,7.47
2022-11-22T20:43:55.520Z,7.90
2022-11-22T20:46:24.073Z,8.43
2022-11-22T20:48:54.059Z,7.80
2022-11-22T20:51:22.984Z,7.90
2022-11-22T20:53:50.890Z,5.87
2022-11-22T20:56:19.031Z,6.33
2022-11-22T20:58:47.373Z,6.97
2022-11-22T21:01:17.198Z,8.70
2022-11-22T21:03:45.525Z,8.50
2022-11-22T21:06:15.410Z,9.33
2022-11-22T21:08:43.344Z,10.60
2022-11-22T21:11:13.134Z,12.20
2022-11-22T21:13:41.788Z,12.70
2022-11-22T21:16:22.379Z,14.47
2022-11-22T21:18:52.652Z,15.00
2022-11-22T21:21:24.187Z,17.03
2022-11-22T21:23:53.137Z,14.43
2022-11-22T21:26:21.158Z,13.63
2022-11-22T21:28:50.532Z,13.03
2022-11-22T21:31:18.848Z,11.40
2022-11-22T21:33:47.407Z,9.80
2022-11-22T21:36:17.712Z,11.20
2022-11-22T21:38:47.359Z,12.50
2022-11-22T21:41:38.841Z,9.60
2022-11-22T21:44:04.553Z,8.33
2022-11-22T21:46:32.824Z,8.17
2022-11-22T21:49:00.693Z,7.70
2022-11-22T21:51:28.710Z,7.40
2022-11-22T21:54:01.695Z,9.20
2022-11-22T21:56:30.343Z,8.80
2022-11-22T21:58:58.443Z,9.33
2022-11-22T22:01:26.598Z,7.47
2022-11-22T22:03:55.205Z,8.83
2022-11-22T22:06:23.045Z,8.57
2022-11-22T22:08:51.045Z,9.33
2022-11-22T22:11:20.838Z,8.93
2022-11-22T22:13:48.872Z,8.97
2022-11-22T22:16:19.242Z,9.17
2022-11-22T22:18:47.679Z,8.83
2022-11-22T22:21:15.950Z,8.47
2022-11-22T22:23:44.455Z,8.57
2022-11-22T22:26:14.941Z,7.13
2022-11-22T22:28:45.245Z,7.53
2022-11-22T22:31:14.721Z,7.70
2022-11-22T22:33:43.070Z,8.93
2022-11-22T22:36:11.520Z,10.07
2022-11-22T22:38:39.752Z,10.63
2022-11-22T22:41:08.764Z,11.07
2022-11-22T22:43:37.161Z,11.00
2022-11-22T22:46:08.084Z,9.73
2022-11-22T22:48:36.310Z,11.10
2022-11-22T22:51:07.968Z,10.47
2022-11-22T22:53:36.789Z,12.10
2022-11-22T22:56:04.683Z,11.27
2022-11-22T22:58:32.419Z,11.10
2022-11-22T23:01:07.312Z,11.73
2022-11-22T23:03:36.088Z,10.70
2022-11-22T23:06:08.427Z,10.50
2022-11-22T23:08:38.589Z,11.10
2022-11-22T23:11:07.620Z,10.30
2022-11-22T23:13:36.417Z,10.73
2022-11-22T23:16:06.201Z,10.03
2022-11-22T23:18:38.049Z,11.10
2022-11-22T23:21:06.734Z,10.10
2022-11-22T23:23:34.826Z,9.87
2022-11-22T23:26:03.586Z,9.20
2022-11-22T23:28:31.404Z,9.60
2022-11-22T23:31:05.103Z,10.17
2022-11-22T23:33:33.293Z,10.20
2022-11-22T23:36:04.216Z,9.87
2022-11-22T23:38:32.069Z,10.07
2022-11-22T23:40:59.885Z,9.97
2022-11-22T23:43:27.977Z,9.90
2022-11-22T23:45:56.190Z,10.23
2022-11-22T23:48:23.917Z,10.27
2022-11-22T23:50:52.137Z,10.10
2022-11-22T23:53:22.000Z,11.27
2022-11-22T23:55:49.741Z,11.07
2022-11-22T23:58:17.719Z,10.20
